Terminal Aerodrome Forecast
Issued by NWS

Home | Current Version | Previous Version | Text Only | Print | Product List | Glossary On
Versions: 1 2 3 4 5 6 7 8 9 10 11 12
427
FTUS42 KTBW 092328
TAFPGD
TAF
KPGD 092328Z 1000/1024 27013G19KT P6SM FEW035 BKN050
     FM100300 27010KT P6SM FEW025 BKN035
     FM101200 35007KT P6SM SCT025 BKN035
     FM101700 32011KT P6SM FEW025 SCT035
     FM102100 29013G18KT P6SM FEW025 SCT035=

USA.gov is the U.S. government's official web portal to all federal, state and local government web resources and services.